sensor_id;sensor_type;location;lat;lon;timestamp;pressure;altitude;pressure_sealevel;temperature;humidity
75006;BME280;63553;51.814;4.600;2024-01-11T00:01:58;103413.28;;;10.89;76.02
75006;BME280;63553;51.814;4.600;2024-01-11T00:04:24;103411.78;;;10.82;75.75
75006;BME280;63553;51.814;4.600;2024-01-11T00:06:50;103414.88;;;10.85;75.67
75006;BME280;63553;51.814;4.600;2024-01-11T00:09:15;103416.50;;;10.81;75.51
75006;BME280;63553;51.814;4.600;2024-01-11T00:11:41;103421.81;;;10.83;75.65
75006;BME280;63553;51.814;4.600;2024-01-11T00:14:06;103414.25;;;10.78;75.67
75006;BME280;63553;51.814;4.600;2024-01-11T00:16:32;103414.50;;;10.77;75.60
75006;BME280;63553;51.814;4.600;2024-01-11T00:18:57;103417.53;;;10.75;75.64
75006;BME280;63553;51.814;4.600;2024-01-11T00:21:22;103416.97;;;10.73;75.62
75006;BME280;63553;51.814;4.600;2024-01-11T00:23:49;103418.06;;;10.72;76.06
75006;BME280;63553;51.814;4.600;2024-01-11T00:26:14;103424.22;;;10.74;75.78
75006;BME280;63553;51.814;4.600;2024-01-11T00:28:39;103427.00;;;10.74;75.97
75006;BME280;63553;51.814;4.600;2024-01-11T00:31:05;103421.69;;;10.73;75.95
75006;BME280;63553;51.814;4.600;2024-01-11T00:33:30;103429.19;;;10.72;76.06
75006;BME280;63553;51.814;4.600;2024-01-11T00:35:56;103420.84;;;10.72;75.76
75006;BME280;63553;51.814;4.600;2024-01-11T00:38:21;103428.91;;;10.69;76.11
75006;BME280;63553;51.814;4.600;2024-01-11T00:40:46;103422.22;;;10.70;75.97
75006;BME280;63553;51.814;4.600;2024-01-11T00:43:12;103417.25;;;10.72;75.82
75006;BME280;63553;51.814;4.600;2024-01-11T00:45:37;103426.41;;;10.72;75.78
75006;BME280;63553;51.814;4.600;2024-01-11T00:48:03;103417.75;;;10.69;75.57
75006;BME280;63553;51.814;4.600;2024-01-11T00:50:29;103427.78;;;10.70;76.03
75006;BME280;63553;51.814;4.600;2024-01-11T00:52:54;103433.09;;;10.71;75.57
75006;BME280;63553;51.814;4.600;2024-01-11T00:55:20;103431.06;;;10.67;75.49
75006;BME280;63553;51.814;4.600;2024-01-11T00:57:45;103426.13;;;10.69;75.32
75006;BME280;63553;51.814;4.600;2024-01-11T01:00:11;103426.13;;;10.69;75.15
75006;BME280;63553;51.814;4.600;2024-01-11T01:02:39;103432.78;;;10.68;75.03
75006;BME280;63553;51.814;4.600;2024-01-11T01:05:05;103419.72;;;10.68;75.50
75006;BME280;63553;51.814;4.600;2024-01-11T01:07:30;103431.94;;;10.67;74.68
75006;BME280;63553;51.814;4.600;2024-01-11T01:09:55;103437.50;;;10.67;74.94
75006;BME280;63553;51.814;4.600;2024-01-11T01:12:21;103428.56;;;10.65;74.68
75006;BME280;63553;51.814;4.600;2024-01-11T01:14:46;103426.13;;;10.69;74.39
75006;BME280;63553;51.814;4.600;2024-01-11T01:17:11;103430.00;;;10.68;74.47
75006;BME280;63553;51.814;4.600;2024-01-11T01:19:37;103427.16;;;10.63;74.25
75006;BME280;63553;51.814;4.600;2024-01-11T01:22:02;103433.81;;;10.62;74.38
75006;BME280;63553;51.814;4.600;2024-01-11T01:24:27;103441.31;;;10.61;74.38
75006;BME280;63553;51.814;4.600;2024-01-11T01:26:53;103440.22;;;10.62;74.22
75006;BME280;63553;51.814;4.600;2024-01-11T01:29:18;103435.16;;;10.59;74.10
75006;BME280;63553;51.814;4.600;2024-01-11T01:31:43;103438.19;;;10.57;73.79
75006;BME280;63553;51.814;4.600;2024-01-11T01:34:09;103444.59;;;10.58;73.91
75006;BME280;63553;51.814;4.600;2024-01-11T01:36:34;103441.25;;;10.56;74.23
75006;BME280;63553;51.814;4.600;2024-01-11T01:38:59;103443.75;;;10.57;74.08
75006;BME280;63553;51.814;4.600;2024-01-11T01:41:25;103440.97;;;10.57;74.15
75006;BME280;63553;51.814;4.600;2024-01-11T01:43:50;103457.94;;;10.56;74.08
75006;BME280;63553;51.814;4.600;2024-01-11T01:46:23;103462.16;;;10.58;73.87
75006;BME280;63553;51.814;4.600;2024-01-11T01:48:51;103466.88;;;10.58;74.00
75006;BME280;63553;51.814;4.600;2024-01-11T01:51:17;103471.56;;;10.57;74.15
75006;BME280;63553;51.814;4.600;2024-01-11T01:53:43;103467.97;;;10.57;74.02
75006;BME280;63553;51.814;4.600;2024-01-11T01:56:09;103468.78;;;10.57;73.98
75006;BME280;63553;51.814;4.600;2024-01-11T01:58:35;103465.19;;;10.57;73.88
75006;BME280;63553;51.814;4.600;2024-01-11T02:01:01;103464.03;;;10.53;74.01
75006;BME280;63553;51.814;4.600;2024-01-11T02:03:27;103460.66;;;10.51;74.11
75006;BME280;63553;51.814;4.600;2024-01-11T02:05:54;103470.09;;;10.50;74.05
75006;BME280;63553;51.814;4.600;2024-01-11T02:08:21;103477.34;;;10.51;74.18
75006;BME280;63553;51.814;4.600;2024-01-11T02:10:48;103474.56;;;10.51;74.11
75006;BME280;63553;51.814;4.600;2024-01-11T02:13:13;103473.97;;;10.49;74.05
75006;BME280;63553;51.814;4.600;2024-01-11T02:15:39;103474.25;;;10.47;74.07
75006;BME280;63553;51.814;4.600;2024-01-11T02:18:05;103464.72;;;10.43;74.04
75006;BME280;63553;51.814;4.600;2024-01-11T02:20:31;103465.06;;;10.47;73.97
75006;BME280;63553;51.814;4.600;2024-01-11T02:23:05;103471.13;;;10.44;74.06
75006;BME280;63553;51.814;4.600;2024-01-11T02:25:33;103474.75;;;10.44;73.88
75006;BME280;63553;51.814;4.600;2024-01-11T02:27:58;103471.13;;;10.44;73.92
75006;BME280;63553;51.814;4.600;2024-01-11T02:30:23;103480.31;;;10.44;73.72
75006;BME280;63553;51.814;4.600;2024-01-11T02:32:50;103480.03;;;10.46;73.55
75006;BME280;63553;51.814;4.600;2024-01-11T02:35:16;103473.91;;;10.44;73.48
75006;BME280;63553;51.814;4.600;2024-01-11T02:37:41;103465.56;;;10.44;73.48
75006;BME280;63553;51.814;4.600;2024-01-11T02:40:08;103469.19;;;10.44;73.27
75006;BME280;63553;51.814;4.600;2024-01-11T02:42:34;103470.03;;;10.45;73.33
75006;BME280;63553;51.814;4.600;2024-01-11T02:45:00;103465.25;;;10.40;73.39
75006;BME280;63553;51.814;4.600;2024-01-11T02:47:26;103472.50;;;10.41;73.25
75006;BME280;63553;51.814;4.600;2024-01-11T02:49:51;103474.66;;;10.39;73.22
75006;BME280;63553;51.814;4.600;2024-01-11T02:52:17;103477.44;;;10.39;73.20
75006;BME280;63553;51.814;4.600;2024-01-11T02:54:42;103488.84;;;10.38;73.14
75006;BME280;63553;51.814;4.600;2024-01-11T02:57:07;103479.66;;;10.37;73.25
75006;BME280;63553;51.814;4.600;2024-01-11T02:59:33;103482.72;;;10.36;73.19
75006;BME280;63553;51.814;4.600;2024-01-11T03:01:58;103484.97;;;10.39;73.02
75006;BME280;63553;51.814;4.600;2024-01-11T03:04:23;103488.50;;;10.34;73.07
75006;BME280;63553;51.814;4.600;2024-01-11T03:06:49;103485.72;;;10.34;72.99
75006;BME280;63553;51.814;4.600;2024-01-11T03:09:14;103487.94;;;10.32;73.06
75006;BME280;63553;51.814;4.600;2024-01-11T03:11:39;103495.44;;;10.32;72.66
75006;BME280;63553;51.814;4.600;2024-01-11T03:14:06;103494.84;;;10.30;72.81
75006;BME280;63553;51.814;4.600;2024-01-11T03:16:31;103488.44;;;10.29;72.73
75006;BME280;63553;51.814;4.600;2024-01-11T03:18:56;103493.16;;;10.29;72.74
75006;BME280;63553;51.814;4.600;2024-01-11T03:21:22;103483.97;;;10.28;72.72
75006;BME280;63553;51.814;4.600;2024-01-11T03:23:47;103481.69;;;10.25;72.35
75006;BME280;63553;51.814;4.600;2024-01-11T03:26:16;103487.88;;;10.27;72.43
75006;BME280;63553;51.814;4.600;2024-01-11T03:28:42;103493.66;;;10.26;72.47
75006;BME280;63553;51.814;4.600;2024-01-11T03:31:09;103491.16;;;10.24;72.44
75006;BME280;63553;51.814;4.600;2024-01-11T03:33:34;103478.06;;;10.25;72.14
75006;BME280;63553;51.814;4.600;2024-01-11T03:36:05;103480.03;;;10.24;72.09
75006;BME280;63553;51.814;4.600;2024-01-11T03:38:31;103466.38;;;10.23;72.19
75006;BME280;63553;51.814;4.600;2024-01-11T03:40:56;103479.44;;;10.22;71.56
75006;BME280;63553;51.814;4.600;2024-01-11T03:43:21;103470.25;;;10.22;71.85
75006;BME280;63553;51.814;4.600;2024-01-11T03:45:47;103473.28;;;10.20;71.66
75006;BME280;63553;51.814;4.600;2024-01-11T03:48:12;103471.59;;;10.19;71.67
75006;BME280;63553;51.814;4.600;2024-01-11T03:50:37;103480.22;;;10.18;71.89
75006;BME280;63553;51.814;4.600;2024-01-11T03:53:03;103464.28;;;10.13;71.83
75006;BME280;63553;51.814;4.600;2024-01-11T03:55:29;103470.69;;;10.14;71.61
75006;BME280;63553;51.814;4.600;2024-01-11T03:57:54;103478.78;;;10.15;71.68
75006;BME280;63553;51.814;4.600;2024-01-11T04:00:20;103474.03;;;10.16;71.60
75006;BME280;63553;51.814;4.600;2024-01-11T04:02:46;103480.09;;;10.13;71.61
75006;BME280;63553;51.814;4.600;2024-01-11T04:05:11;103486.53;;;10.13;71.67
75006;BME280;63553;51.814;4.600;2024-01-11T04:07:36;103488.41;;;10.13;71.42
75006;BME280;63553;51.814;4.600;2024-01-11T04:10:02;103495.94;;;10.12;71.58
75006;BME280;63553;51.814;4.600;2024-01-11T04:12:28;103491.47;;;10.11;71.59
75006;BME280;63553;51.814;4.600;2024-01-11T04:14:53;103495.94;;;10.12;71.61
75006;BME280;63553;51.814;4.600;2024-01-11T04:17:18;103500.91;;;10.10;71.70
75006;BME280;63553;51.814;4.600;2024-01-11T04:19:44;103495.03;;;10.07;71.55
75006;BME280;63553;51.814;4.600;2024-01-11T04:22:09;103501.66;;;10.05;71.58
75006;BME280;63553;51.814;4.600;2024-01-11T04:24:35;103504.19;;;10.07;71.71
75006;BME280;63553;51.814;4.600;2024-01-11T04:27:01;103505.53;;;10.04;71.43
75006;BME280;63553;51.814;4.600;2024-01-11T04:29:26;103510.25;;;10.04;71.40
75006;BME280;63553;51.814;4.600;2024-01-11T04:31:51;103507.47;;;10.04;71.30
75006;BME280;63553;51.814;4.600;2024-01-11T04:34:17;103502.09;;;9.97;71.25
75006;BME280;63553;51.814;4.600;2024-01-11T04:36:42;103511.59;;;10.01;71.01
75006;BME280;63553;51.814;4.600;2024-01-11T04:39:07;103501.84;;;9.99;70.62
75006;BME280;63553;51.814;4.600;2024-01-11T04:41:35;103505.19;;;10.01;71.13
75006;BME280;63553;51.814;4.600;2024-01-11T04:44:02;103512.97;;;9.99;71.21
75006;BME280;63553;51.814;4.600;2024-01-11T04:46:27;103524.66;;;10.01;71.38
75006;BME280;63553;51.814;4.600;2024-01-11T04:48:52;103531.31;;;10.00;71.33
75006;BME280;63553;51.814;4.600;2024-01-11T04:51:19;103519.59;;;9.98;71.09
75006;BME280;63553;51.814;4.600;2024-01-11T04:53:45;103524.56;;;9.96;71.36
75006;BME280;63553;51.814;4.600;2024-01-11T04:56:13;103531.84;;;9.97;71.57
75006;BME280;63553;51.814;4.600;2024-01-11T04:58:41;103533.19;;;9.94;71.21
75006;BME280;63553;51.814;4.600;2024-01-11T05:01:07;103538.13;;;9.92;71.21
75006;BME280;63553;51.814;4.600;2024-01-11T05:03:36;103537.28;;;9.92;71.09
75006;BME280;63553;51.814;4.600;2024-01-11T05:06:01;103534.25;;;10.10;70.97
75006;BME280;63553;51.814;4.600;2024-01-11T05:08:27;103535.81;;;10.18;71.04
75006;BME280;63553;51.814;4.600;2024-01-11T05:10:55;103535.66;;;10.24;70.22
75006;BME280;63553;51.814;4.600;2024-01-11T05:13:21;103533.00;;;10.34;70.32
75006;BME280;63553;51.814;4.600;2024-01-11T05:15:46;103539.75;;;10.38;69.36
75006;BME280;63553;51.814;4.600;2024-01-11T05:18:12;103540.72;;;10.49;68.67
75006;BME280;63553;51.814;4.600;2024-01-11T05:20:38;103547.00;;;10.78;69.91
75006;BME280;63553;51.814;4.600;2024-01-11T05:23:04;103551.13;;;11.19;71.08
75006;BME280;63553;51.814;4.600;2024-01-11T05:25:30;103547.84;;;11.48;70.38
75006;BME280;63553;51.814;4.600;2024-01-11T05:28:02;103558.53;;;11.83;71.17
75006;BME280;63553;51.814;4.600;2024-01-11T05:30:28;103555.16;;;12.13;69.73
75006;BME280;63553;51.814;4.600;2024-01-11T05:32:54;103556.91;;;12.19;64.57
75006;BME280;63553;51.814;4.600;2024-01-11T05:35:20;103561.41;;;12.25;61.88
75006;BME280;63553;51.814;4.600;2024-01-11T05:37:45;103563.97;;;12.32;59.31
75006;BME280;63553;51.814;4.600;2024-01-11T05:40:11;103559.25;;;12.37;59.18
75006;BME280;63553;51.814;4.600;2024-01-11T05:42:36;103553.72;;;12.42;58.83
75006;BME280;63553;51.814;4.600;2024-01-11T05:45:06;103543.72;;;12.51;58.34
75006;BME280;63553;51.814;4.600;2024-01-11T05:47:32;103537.69;;;12.64;57.48
75006;BME280;63553;51.814;4.600;2024-01-11T05:49:57;103537.47;;;12.76;57.63
75006;BME280;63553;51.814;4.600;2024-01-11T05:52:22;103553.97;;;12.82;56.95
75006;BME280;63553;51.814;4.600;2024-01-11T05:54:48;103550.41;;;13.02;56.44
75006;BME280;63553;51.814;4.600;2024-01-11T05:57:13;103562.59;;;13.48;56.88
75006;BME280;63553;51.814;4.600;2024-01-11T05:59:44;103563.25;;;14.01;56.46
75006;BME280;63553;51.814;4.600;2024-01-11T06:02:10;103559.34;;;14.42;56.29
75006;BME280;63553;51.814;4.600;2024-01-11T06:04:35;103557.00;;;14.79;55.66
75006;BME280;63553;51.814;4.600;2024-01-11T06:07:01;103557.19;;;15.13;55.41
75006;BME280;63553;51.814;4.600;2024-01-11T06:09:26;103559.25;;;15.41;55.14
75006;BME280;63553;51.814;4.600;2024-01-11T06:11:51;103569.56;;;15.61;54.77
75006;BME280;63553;51.814;4.600;2024-01-11T06:14:17;103560.44;;;15.84;54.54
75006;BME280;63553;51.814;4.600;2024-01-11T06:16:42;103565.03;;;16.04;54.08
75006;BME280;63553;51.814;4.600;2024-01-11T06:19:08;103564.06;;;16.19;53.82
75006;BME280;63553;51.814;4.600;2024-01-11T06:21:34;103570.38;;;16.34;53.60
75006;BME280;63553;51.814;4.600;2024-01-11T06:23:59;103556.44;;;16.53;53.13
75006;BME280;63553;51.814;4.600;2024-01-11T06:26:25;103547.91;;;16.68;52.59
75006;BME280;63553;51.814;4.600;2024-01-11T06:28:50;103579.16;;;16.85;52.75
75006;BME280;63553;51.814;4.600;2024-01-11T06:31:15;103559.66;;;16.94;51.01
75006;BME280;63553;51.814;4.600;2024-01-11T06:33:41;103565.34;;;16.89;66.03
75006;BME280;63553;51.814;4.600;2024-01-11T06:36:06;103569.28;;;16.88;74.80
75006;BME280;63553;51.814;4.600;2024-01-11T06:38:34;103552.97;;;16.90;84.28
75006;BME280;63553;51.814;4.600;2024-01-11T06:41:00;103560.69;;;16.79;84.29
75006;BME280;63553;51.814;4.600;2024-01-11T06:43:25;103567.69;;;16.82;88.23
75006;BME280;63553;51.814;4.600;2024-01-11T06:45:51;103564.00;;;16.86;88.73
75006;BME280;63553;51.814;4.600;2024-01-11T06:48:17;103580.53;;;16.88;86.87
75006;BME280;63553;51.814;4.600;2024-01-11T06:50:42;103586.22;;;16.83;89.34
75006;BME280;63553;51.814;4.600;2024-01-11T06:53:08;103582.75;;;16.91;88.45
75006;BME280;63553;51.814;4.600;2024-01-11T06:55:33;103577.91;;;16.96;85.61
75006;BME280;63553;51.814;4.600;2024-01-11T06:57:58;103587.00;;;17.12;86.76
75006;BME280;63553;51.814;4.600;2024-01-11T07:00:24;103598.63;;;17.48;90.58
75006;BME280;63553;51.814;4.600;2024-01-11T07:02:49;103590.00;;;17.63;99.37
75006;BME280;63553;51.814;4.600;2024-01-11T07:05:15;103602.91;;;17.64;96.50
75006;BME280;63553;51.814;4.600;2024-01-11T07:07:40;103608.63;;;17.59;93.09
75006;BME280;63553;51.814;4.600;2024-01-11T07:10:06;103612.28;;;17.59;90.56
75006;BME280;63553;51.814;4.600;2024-01-11T07:12:31;103624.47;;;17.50;90.93
75006;BME280;63553;51.814;4.600;2024-01-11T07:14:58;103628.25;;;17.40;94.12
75006;BME280;63553;51.814;4.600;2024-01-11T07:17:23;103625.84;;;17.29;97.17
75006;BME280;63553;51.814;4.600;2024-01-11T07:19:48;103622.94;;;17.15;95.08
75006;BME280;63553;51.814;4.600;2024-01-11T07:22:14;103622.25;;;17.04;90.08
75006;BME280;63553;51.814;4.600;2024-01-11T07:24:39;103625.41;;;16.98;87.79
75006;BME280;63553;51.814;4.600;2024-01-11T07:27:05;103631.06;;;16.93;86.70
75006;BME280;63553;51.814;4.600;2024-01-11T07:29:31;103632.25;;;16.87;84.54
75006;BME280;63553;51.814;4.600;2024-01-11T07:31:56;103623.81;;;16.87;83.59
75006;BME280;63553;51.814;4.600;2024-01-11T07:34:22;103620.47;;;16.85;81.15
75006;BME280;63553;51.814;4.600;2024-01-11T07:36:47;103623.59;;;16.83;79.83
75006;BME280;63553;51.814;4.600;2024-01-11T07:39:12;103620.47;;;16.85;76.81
75006;BME280;63553;51.814;4.600;2024-01-11T07:41:38;103618.25;;;16.82;77.01
75006;BME280;63553;51.814;4.600;2024-01-11T07:44:03;103620.34;;;16.71;81.23
75006;BME280;63553;51.814;4.600;2024-01-11T07:46:29;103618.22;;;16.58;83.85
75006;BME280;63553;51.814;4.600;2024-01-11T07:48:54;103605.66;;;16.45;85.68
75006;BME280;63553;51.814;4.600;2024-01-11T07:51:19;103616.16;;;16.35;85.92
75006;BME280;63553;51.814;4.600;2024-01-11T07:53:45;103599.44;;;16.20;85.16
75006;BME280;63553;51.814;4.600;2024-01-11T07:56:10;103605.69;;;16.11;80.30
75006;BME280;63553;51.814;4.600;2024-01-11T07:58:36;103604.91;;;16.06;84.62
75006;BME280;63553;51.814;4.600;2024-01-11T08:01:03;103603.00;;;15.96;81.22
75006;BME280;63553;51.814;4.600;2024-01-11T08:03:29;103605.53;;;15.93;82.75
75006;BME280;63553;51.814;4.600;2024-01-11T08:05:55;103608.09;;;15.89;83.28
75006;BME280;63553;51.814;4.600;2024-01-11T08:08:20;103615.38;;;15.90;82.77
75006;BME280;63553;51.814;4.600;2024-01-11T08:10:47;103606.69;;;15.87;77.68
75006;BME280;63553;51.814;4.600;2024-01-11T08:13:15;103612.03;;;15.88;79.51
75006;BME280;63553;51.814;4.600;2024-01-11T08:15:40;103613.09;;;15.97;77.55
75006;BME280;63553;51.814;4.600;2024-01-11T08:18:09;103607.94;;;16.09;77.54
75006;BME280;63553;51.814;4.600;2024-01-11T08:20:38;103608.13;;;16.23;78.05
75006;BME280;63553;51.814;4.600;2024-01-11T08:23:03;103613.09;;;16.31;77.75
75006;BME280;63553;51.814;4.600;2024-01-11T08:25:28;103605.19;;;16.38;76.46
75006;BME280;63553;51.814;4.600;2024-01-11T08:27:54;103604.00;;;16.44;76.79
75006;BME280;63553;51.814;4.600;2024-01-11T08:30:19;103610.66;;;16.53;75.55
75006;BME280;63553;51.814;4.600;2024-01-11T08:32:45;103620.94;;;16.68;72.28
75006;BME280;63553;51.814;4.600;2024-01-11T08:35:11;103622.94;;;16.91;72.75
75006;BME280;63553;51.814;4.600;2024-01-11T08:37:39;103627.47;;;17.11;70.69
75006;BME280;63553;51.814;4.600;2024-01-11T08:40:07;103630.34;;;17.30;70.59
75006;BME280;63553;51.814;4.600;2024-01-11T08:42:34;103616.47;;;17.38;69.82
75006;BME280;63553;51.814;4.600;2024-01-11T08:44:59;103625.66;;;17.44;66.74
75006;BME280;63553;51.814;4.600;2024-01-11T08:47:31;103616.19;;;17.40;67.99
75006;BME280;63553;51.814;4.600;2024-01-11T08:49:57;103609.72;;;17.39;67.35
75006;BME280;63553;51.814;4.600;2024-01-11T08:52:22;103601.56;;;17.38;65.85
75006;BME280;63553;51.814;4.600;2024-01-11T08:54:47;103617.59;;;17.37;64.25
75006;BME280;63553;51.814;4.600;2024-01-11T08:57:14;103623.03;;;17.29;65.66
75006;BME280;63553;51.814;4.600;2024-01-11T08:59:40;103636.66;;;17.21;64.26
75006;BME280;63553;51.814;4.600;2024-01-11T09:02:06;103626.94;;;17.09;64.98
75006;BME280;63553;51.814;4.600;2024-01-11T09:04:32;103640.81;;;17.00;64.35
75006;BME280;63553;51.814;4.600;2024-01-11T09:06:57;103642.50;;;17.01;63.68
75006;BME280;63553;51.814;4.600;2024-01-11T09:09:22;103640.16;;;17.08;64.40
75006;BME280;63553;51.814;4.600;2024-01-11T09:11:48;103638.63;;;17.21;61.28
75006;BME280;63553;51.814;4.600;2024-01-11T09:14:14;103638.13;;;17.38;60.39
75006;BME280;63553;51.814;4.600;2024-01-11T09:16:40;103642.19;;;17.50;60.03
75006;BME280;63553;51.814;4.600;2024-01-11T09:19:05;103636.75;;;17.59;57.95
75006;BME280;63553;51.814;4.600;2024-01-11T09:21:31;103640.19;;;17.74;57.93
75006;BME280;63553;51.814;4.600;2024-01-11T09:23:56;103662.94;;;17.78;56.63
75006;BME280;63553;51.814;4.600;2024-01-11T09:26:21;103672.00;;;17.75;56.14
75006;BME280;63553;51.814;4.600;2024-01-11T09:28:48;103661.41;;;17.67;56.46
75006;BME280;63553;51.814;4.600;2024-01-11T09:31:13;103662.06;;;17.59;56.06
75006;BME280;63553;51.814;4.600;2024-01-11T09:33:38;103675.94;;;17.50;52.33
75006;BME280;63553;51.814;4.600;2024-01-11T09:36:04;103693.59;;;17.32;56.19
75006;BME280;63553;51.814;4.600;2024-01-11T09:38:30;103689.66;;;17.09;57.99
75006;BME280;63553;51.814;4.600;2024-01-11T09:41:09;103697.72;;;16.87;55.95
75006;BME280;63553;51.814;4.600;2024-01-11T09:43:35;103704.97;;;16.64;56.77
75006;BME280;63553;51.814;4.600;2024-01-11T09:46:05;103704.84;;;16.41;55.93
75006;BME280;63553;51.814;4.600;2024-01-11T09:48:32;103706.06;;;16.25;56.70
75006;BME280;63553;51.814;4.600;2024-01-11T09:51:03;103706.38;;;16.23;56.01
75006;BME280;63553;51.814;4.600;2024-01-11T09:53:32;103712.25;;;16.22;56.11
75006;BME280;63553;51.814;4.600;2024-01-11T09:56:02;103714.00;;;16.18;54.21
75006;BME280;63553;51.814;4.600;2024-01-11T09:58:30;103723.22;;;16.23;52.75
75006;BME280;63553;51.814;4.600;2024-01-11T10:00:56;103737.44;;;16.37;52.27
75006;BME280;63553;51.814;4.600;2024-01-11T10:03:25;103725.56;;;16.50;52.48
75006;BME280;63553;51.814;4.600;2024-01-11T10:05:57;103723.56;;;16.55;50.46
75006;BME280;63553;51.814;4.600;2024-01-11T10:08:25;103722.09;;;16.68;50.57
75006;BME280;63553;51.814;4.600;2024-01-11T10:10:51;103723.75;;;16.69;50.21
75006;BME280;63553;51.814;4.600;2024-01-11T10:13:18;103739.59;;;6.64;42.51
75006;BME280;63553;51.814;4.600;2024-01-11T10:15:43;103747.91;;;2.56;52.21
75006;BME280;63553;51.814;4.600;2024-01-11T10:18:09;103746.88;;;1.28;54.68
75006;BME280;63553;51.814;4.600;2024-01-11T10:20:35;103739.75;;;2.41;53.38
75006;BME280;63553;51.814;4.600;2024-01-11T10:23:02;103742.25;;;2.57;53.48
75006;BME280;63553;51.814;4.600;2024-01-11T10:25:28;103735.53;;;1.82;56.54
75006;BME280;63553;51.814;4.600;2024-01-11T10:27:54;103730.13;;;1.52;57.39
75006;BME280;63553;51.814;4.600;2024-01-11T10:30:19;103736.28;;;1.54;58.26
75006;BME280;63553;51.814;4.600;2024-01-11T10:32:47;103732.94;;;1.74;60.16
75006;BME280;63553;51.814;4.600;2024-01-11T10:35:13;103737.00;;;2.62;56.60
75006;BME280;63553;51.814;4.600;2024-01-11T10:37:39;103739.75;;;1.78;60.76
75006;BME280;63553;51.814;4.600;2024-01-11T10:40:06;103738.00;;;2.12;62.39
75006;BME280;63553;51.814;4.600;2024-01-11T10:42:44;103735.59;;;1.67;63.35
75006;BME280;63553;51.814;4.600;2024-01-11T10:45:20;103739.28;;;2.38;65.76
75006;BME280;63553;51.814;4.600;2024-01-11T10:47:56;103748.25;;;1.68;65.87
75006;BME280;63553;51.814;4.600;2024-01-11T10:50:28;103726.19;;;1.26;67.99
75006;BME280;63553;51.814;4.600;2024-01-11T10:55:55;103735.50;;;2.39;65.60
75006;BME280;63553;51.814;4.600;2024-01-11T10:58:24;103742.41;;;2.56;68.32
75006;BME280;63553;51.814;4.600;2024-01-11T11:00:53;103740.94;;;2.81;65.26
75006;BME280;63553;51.814;4.600;2024-01-11T11:03:23;103750.25;;;2.31;68.94
75006;BME280;63553;51.814;4.600;2024-01-11T11:05:52;103744.97;;;1.94;69.58
75006;BME280;63553;51.814;4.600;2024-01-11T11:08:19;103762.00;;;2.46;68.69
75006;BME280;63553;51.814;4.600;2024-01-11T11:10:45;103765.31;;;1.05;70.97
75006;BME280;63553;51.814;4.600;2024-01-11T11:13:14;103769.69;;;2.15;68.56
75006;BME280;63553;51.814;4.600;2024-01-11T11:15:42;103772.78;;;1.26;71.49
75006;BME280;63553;51.814;4.600;2024-01-11T11:18:12;103774.53;;;1.77;70.09
75006;BME280;63553;51.814;4.600;2024-01-11T11:20:39;103772.63;;;1.92;70.76
75006;BME280;63553;51.814;4.600;2024-01-11T11:23:07;103780.63;;;1.43;73.21
75006;BME280;63553;51.814;4.600;2024-01-11T11:25:34;103784.47;;;2.35;71.34
75006;BME280;63553;51.814;4.600;2024-01-11T11:28:00;103779.69;;;1.51;72.03
75006;BME280;63553;51.814;4.600;2024-01-11T11:30:32;103783.81;;;1.76;71.33
75006;BME280;63553;51.814;4.600;2024-01-11T11:32:58;103785.03;;;1.74;72.36
75006;BME280;63553;51.814;4.600;2024-01-11T11:35:26;103774.28;;;1.93;71.62
75006;BME280;63553;51.814;4.600;2024-01-11T11:37:55;103773.94;;;1.82;72.22
75006;BME280;63553;51.814;4.600;2024-01-11T11:40:32;103766.53;;;1.46;73.99
75006;BME280;63553;51.814;4.600;2024-01-11T11:42:58;103761.97;;;1.68;74.00
75006;BME280;63553;51.814;4.600;2024-01-11T11:45:26;103763.63;;;6.88;78.88
75006;BME280;63553;51.814;4.600;2024-01-11T11:47:51;103748.34;;;11.43;62.53
75006;BME280;63553;51.814;4.600;2024-01-11T11:50:21;103754.78;;;13.21;57.70
75006;BME280;63553;51.814;4.600;2024-01-11T11:52:53;103755.59;;;14.56;53.66
75006;BME280;63553;51.814;4.600;2024-01-11T11:55:19;103751.06;;;15.40;52.84
75006;BME280;63553;51.814;4.600;2024-01-11T11:57:45;103744.50;;;15.85;50.94
75006;BME280;63553;51.814;4.600;2024-01-11T12:00:11;103754.06;;;16.28;48.92
75006;BME280;63553;51.814;4.600;2024-01-11T12:02:38;103747.97;;;16.60;47.86
75006;BME280;63553;51.814;4.600;2024-01-11T12:05:04;103744.44;;;16.83;48.91
75006;BME280;63553;51.814;4.600;2024-01-11T12:07:30;103734.78;;;16.94;48.36
75006;BME280;63553;51.814;4.600;2024-01-11T12:09:55;103732.66;;;17.10;48.08
75006;BME280;63553;51.814;4.600;2024-01-11T12:12:21;103745.16;;;17.22;51.79
75006;BME280;63553;51.814;4.600;2024-01-11T12:14:47;103738.31;;;17.34;50.57
75006;BME280;63553;51.814;4.600;2024-01-11T12:17:14;103727.59;;;17.36;50.64
75006;BME280;63553;51.814;4.600;2024-01-11T12:19:39;103723.06;;;17.40;50.27
75006;BME280;63553;51.814;4.600;2024-01-11T12:22:04;103710.38;;;17.42;49.16
75006;BME280;63553;51.814;4.600;2024-01-11T12:24:30;103699.38;;;17.46;49.49
75006;BME280;63553;51.814;4.600;2024-01-11T12:26:57;103708.00;;;17.49;49.27
75006;BME280;63553;51.814;4.600;2024-01-11T12:29:25;103704.06;;;17.50;48.83
75006;BME280;63553;51.814;4.600;2024-01-11T12:31:51;103702.06;;;17.56;48.73
75006;BME280;63553;51.814;4.600;2024-01-11T12:34:17;103693.88;;;17.59;48.54
75006;BME280;63553;51.814;4.600;2024-01-11T12:36:43;103704.53;;;17.62;48.45
75006;BME280;63553;51.814;4.600;2024-01-11T12:39:10;103699.66;;;17.68;47.20
75006;BME280;63553;51.814;4.600;2024-01-11T12:41:39;103698.53;;;17.69;47.28
75006;BME280;63553;51.814;4.600;2024-01-11T12:44:04;103690.09;;;17.69;45.95
75006;BME280;63553;51.814;4.600;2024-01-11T12:46:29;103689.78;;;17.70;47.42
75006;BME280;63553;51.814;4.600;2024-01-11T12:48:55;103681.66;;;17.69;47.93
75006;BME280;63553;51.814;4.600;2024-01-11T12:51:20;103677.47;;;17.66;48.16